createdAt,value
2019-01-16T00:00:47.776Z,-3.2
2019-01-16T00:01:37.601Z,-3.1
2019-01-16T00:02:28.446Z,-3
2019-01-16T00:03:18.330Z,-2.9
2019-01-16T00:04:08.554Z,-2.9
2019-01-16T00:04:58.059Z,-2.8
2019-01-16T00:05:47.848Z,-2.8
2019-01-16T00:06:38.736Z,-2.7
2019-01-16T00:07:28.517Z,-2.6
2019-01-16T00:08:18.546Z,-2.6
2019-01-16T00:09:08.621Z,-2.6
2019-01-16T00:09:58.676Z,-2.6
2019-01-16T00:10:48.456Z,-2.6
2019-01-16T00:11:39.068Z,-2.6
2019-01-16T00:12:29.105Z,-2.6
2019-01-16T00:13:18.893Z,-2.5
2019-01-16T00:14:08.945Z,-2.5
2019-01-16T00:14:58.492Z,-2.5
2019-01-16T00:15:48.861Z,-2.4
2019-01-16T00:16:38.920Z,-2.4
2019-01-16T00:17:28.750Z,-2.4
2019-01-16T00:18:19.721Z,-2.4
2019-01-16T00:19:09.293Z,-2.5
2019-01-16T00:19:59.360Z,-2.4
2019-01-16T00:20:49.682Z,-2.4
2019-01-16T00:21:39.457Z,-2.4
2019-01-16T00:22:29.797Z,-2.4
2019-01-16T00:23:19.570Z,-2.3
2019-01-16T00:24:09.903Z,-2.3
2019-01-16T00:24:58.853Z,-2.3
2019-01-16T00:25:50.032Z,-2.3
2019-01-16T00:26:39.800Z,-2.3
2019-01-16T00:27:29.859Z,-2.3
2019-01-16T00:28:20.174Z,-2.3
2019-01-16T00:29:10.235Z,-2.3
2019-01-16T00:29:59.747Z,-2.3
2019-01-16T00:30:49.802Z,-2.3
2019-01-16T00:31:40.147Z,-2.3
2019-01-16T00:32:30.469Z,-2.3
2019-01-16T00:33:20.530Z,-2.2
2019-01-16T00:34:10.309Z,-2.2
2019-01-16T00:35:00.724Z,-2.2
2019-01-16T00:35:49.651Z,-2.2
2019-01-16T00:36:40.265Z,-2.1
2019-01-16T00:37:30.321Z,-2.2
2019-01-16T00:38:20.385Z,-2.2
2019-01-16T00:39:10.442Z,-2.3
2019-01-16T00:40:00.487Z,-2.3
2019-01-16T00:40:50.764Z,-2.3
2019-01-16T00:41:40.827Z,-2.3
2019-01-16T00:42:30.864Z,-2.3
2019-01-16T00:43:20.643Z,-2.3
2019-01-16T00:44:11.256Z,-2.2
2019-01-16T00:45:00.482Z,-2.3
2019-01-16T00:45:51.364Z,-2.3
2019-01-16T00:46:41.414Z,-2.3
2019-01-16T00:47:31.488Z,-2.2
2019-01-16T00:48:26.961Z,-2.2
2019-01-16T00:49:11.344Z,-2.3
2019-01-16T00:50:01.144Z,-2.3
2019-01-16T00:50:51.149Z,-2.3
2019-01-16T00:51:41.765Z,-2.3
2019-01-16T00:52:31.261Z,-2.3
2019-01-16T00:53:21.635Z,-2.3
2019-01-16T00:54:11.643Z,-2.3
2019-01-16T00:55:01.721Z,-2.3
2019-01-16T00:55:52.043Z,-2.3
2019-01-16T00:56:41.818Z,-2.4
2019-01-16T00:57:32.153Z,-2.3
2019-01-16T00:58:21.943Z,-2.3
2019-01-16T00:59:12.941Z,-2.3
2019-01-16T01:00:02.111Z,-2.3
2019-01-16T01:00:52.113Z,-2.3
2019-01-16T01:01:41.903Z,-2.3
2019-01-16T01:02:32.218Z,-2.3
2019-01-16T01:03:22.563Z,-2.3
2019-01-16T01:04:12.062Z,-2.3
2019-01-16T01:05:02.413Z,-2.4
2019-01-16T01:05:52.717Z,-2.3
2019-01-16T01:06:42.517Z,-2.3
2019-01-16T01:07:32.282Z,-2.3
2019-01-16T01:08:22.923Z,-2.4
2019-01-16T01:09:12.953Z,-2.3
2019-01-16T01:10:03.049Z,-2.3
2019-01-16T01:10:52.512Z,-2.3
2019-01-16T01:11:42.580Z,-2.3
2019-01-16T01:12:33.167Z,-2.3
2019-01-16T01:13:22.952Z,-2.4
2019-01-16T01:14:13.292Z,-2.4
2019-01-16T01:15:03.367Z,-2.5
2019-01-16T01:15:53.395Z,-2.5
2019-01-16T01:16:43.194Z,-2.5
2019-01-16T01:17:33.519Z,-2.5
2019-01-16T01:18:23.574Z,-2.5
2019-01-16T01:19:13.349Z,-2.5
2019-01-16T01:20:03.696Z,-2.5
2019-01-16T01:20:53.469Z,-2.4
2019-01-16T01:21:43.524Z,-2.4
2019-01-16T01:22:33.923Z,-2.4
2019-01-16T01:23:23.351Z,-2.4
2019-01-16T01:24:13.974Z,-2.4
2019-01-16T01:25:04.044Z,-2.4
2019-01-16T01:25:53.824Z,-2.4
2019-01-16T01:26:44.138Z,-2.4
2019-01-16T01:27:33.918Z,-2.4
2019-01-16T01:28:23.971Z,-2.4
2019-01-16T01:29:14.296Z,-2.5
2019-01-16T01:30:03.828Z,-2.5
2019-01-16T01:30:54.251Z,-2.5
2019-01-16T01:31:43.931Z,-2.6
2019-01-16T01:32:33.976Z,-2.6
2019-01-16T01:33:24.591Z,-2.6
2019-01-16T01:34:14.663Z,-2.6
2019-01-16T01:35:04.720Z,-2.5
2019-01-16T01:35:54.753Z,-2.4
2019-01-16T01:36:44.530Z,-2.5
2019-01-16T01:37:34.590Z,-2.5
2019-01-16T01:38:24.943Z,-2.4
2019-01-16T01:39:14.698Z,-2.4
2019-01-16T01:40:05.047Z,-2.4
2019-01-16T01:40:54.808Z,-2.3
2019-01-16T01:41:44.583Z,-2.3
2019-01-16T01:42:34.923Z,-2.3
2019-01-16T01:43:24.723Z,-2.3
2019-01-16T01:44:14.773Z,-2.3
2019-01-16T01:45:04.822Z,-2.3
2019-01-16T01:45:55.440Z,-2.3
2019-01-16T01:46:45.202Z,-2.3
2019-01-16T01:47:35.008Z,-2.1
2019-01-16T01:48:25.331Z,-2.1
2019-01-16T01:49:15.445Z,-2.2
2019-01-16T01:50:05.719Z,-2.2
2019-01-16T01:50:55.003Z,-2.3
2019-01-16T01:51:45.044Z,-2.2
2019-01-16T01:52:35.882Z,-2.1
2019-01-16T01:53:25.662Z,-2.1
2019-01-16T01:54:15.988Z,-2.1
2019-01-16T01:55:05.771Z,-2.1
2019-01-16T01:55:56.107Z,-2.2
2019-01-16T01:56:45.612Z,-2.2
2019-01-16T01:57:35.671Z,-2.1
2019-01-16T01:58:25.730Z,-2.2
2019-01-16T01:59:15.779Z,-2.2
2019-01-16T02:00:06.117Z,-2.3
2019-01-16T02:00:56.454Z,-2.3
2019-01-16T02:01:45.946Z,-2.3
2019-01-16T02:02:36.334Z,-2.3
2019-01-16T02:03:26.611Z,-2.4
2019-01-16T02:04:16.116Z,-2.4
2019-01-16T02:05:06.456Z,-2.4
2019-01-16T02:05:56.503Z,-2.5
2019-01-16T02:06:46.951Z,-2.6
2019-01-16T02:07:36.893Z,-2.6
2019-01-16T02:08:26.953Z,-2.6
2019-01-16T02:09:16.722Z,-2.6
2019-01-16T02:10:06.781Z,-2.6
2019-01-16T02:10:57.179Z,-2.6
2019-01-16T02:11:46.628Z,-2.6
2019-01-16T02:12:36.958Z,-2.7
2019-01-16T02:13:27.008Z,-2.6
2019-01-16T02:14:16.513Z,-2.7
2019-01-16T02:15:07.128Z,-2.8
2019-01-16T02:15:57.458Z,-2.8
2019-01-16T02:16:46.971Z,-2.8
2019-01-16T02:17:36.798Z,-2.7
2019-01-16T02:18:26.874Z,-2.8
2019-01-16T02:19:17.230Z,-2.8
2019-01-16T02:20:07.260Z,-2.8
2019-01-16T02:20:57.310Z,-2.8
2019-01-16T02:21:47.095Z,-2.8
2019-01-16T02:22:36.873Z,-2.7
2019-01-16T02:23:27.238Z,-2.6
2019-01-16T02:24:17.547Z,-2.6
2019-01-16T02:25:07.063Z,-2.6
2019-01-16T02:25:57.380Z,-2.7
2019-01-16T02:26:47.715Z,-2.8
2019-01-16T02:27:38.249Z,-2.8
2019-01-16T02:28:27.486Z,-2.8
2019-01-16T02:29:18.104Z,-2.8
2019-01-16T02:30:08.484Z,-2.8
2019-01-16T02:30:58.525Z,-2.8
2019-01-16T02:31:48.262Z,-2.8
2019-01-16T02:32:38.359Z,-2.9
2019-01-16T02:33:28.125Z,-2.9
2019-01-16T02:34:18.437Z,-2.9
2019-01-16T02:35:08.210Z,-3
2019-01-16T02:35:58.548Z,-3.1
2019-01-16T02:36:48.942Z,-3.2
2019-01-16T02:37:38.703Z,-3.3
2019-01-16T02:38:28.746Z,-3.4
2019-01-16T02:39:19.071Z,-3.4
2019-01-16T02:40:08.826Z,-3.4
2019-01-16T02:40:58.900Z,-3.4
2019-01-16T02:41:48.937Z,-3.5
2019-01-16T02:42:39.009Z,-3.6
2019-01-16T02:43:29.328Z,-3.6
2019-01-16T02:44:18.900Z,-3.6
2019-01-16T02:45:09.435Z,-3.6
2019-01-16T02:45:59.514Z,-3.6
2019-01-16T02:46:48.801Z,-3.6
2019-01-16T02:47:39.257Z,-3.5
2019-01-16T02:48:28.658Z,-3.6
2019-01-16T02:49:19.449Z,-3.4
2019-01-16T02:50:09.790Z,-3.4
2019-01-16T02:50:59.576Z,-3.4
2019-01-16T02:51:49.899Z,-3.4
2019-01-16T02:52:40.011Z,-3.4
2019-01-16T02:53:29.456Z,-3.1
2019-01-16T02:54:20.082Z,-3
2019-01-16T02:55:09.625Z,-2.8
2019-01-16T02:55:59.848Z,-2.8
2019-01-16T02:56:50.004Z,-2.6
2019-01-16T02:57:40.004Z,-2.5
2019-01-16T02:58:29.858Z,-2.6
2019-01-16T02:59:20.408Z,-2.6
2019-01-16T03:00:10.194Z,-2.8
2019-01-16T03:01:00.515Z,-2.9
2019-01-16T03:01:50.616Z,-3.1
2019-01-16T03:02:40.635Z,-3.3
2019-01-16T03:03:30.124Z,-3.4
2019-01-16T03:04:20.193Z,-3.5
2019-01-16T03:05:10.592Z,-3.6
2019-01-16T03:08:44.067Z,-4
2019-01-16T03:09:34.026Z,-4
2019-01-16T03:10:24.385Z,-4.1
2019-01-16T03:11:14.374Z,-4.1
2019-01-16T03:12:04.447Z,-4.1
2019-01-16T03:12:54.513Z,-4
2019-01-16T03:13:44.557Z,-4
2019-01-16T03:14:34.623Z,-4
2019-01-16T03:15:24.392Z,-4
2019-01-16T03:16:14.192Z,-4
2019-01-16T03:17:04.527Z,-4
2019-01-16T03:17:54.308Z,-4
2019-01-16T03:18:44.889Z,-4.1
2019-01-16T03:19:35.052Z,-4.1
2019-01-16T03:20:24.479Z,-4.1
2019-01-16T03:21:15.061Z,-4.1
2019-01-16T03:22:05.173Z,-4.1
2019-01-16T03:22:55.185Z,-4.1
2019-01-16T03:23:44.671Z,-4.1
2019-01-16T03:24:34.742Z,-4
2019-01-16T03:25:24.791Z,-4
2019-01-16T03:26:15.444Z,-3.9
2019-01-16T03:27:05.179Z,-3.9
2019-01-16T03:27:55.514Z,-3.8
2019-01-16T03:28:45.571Z,-3.8
2019-01-16T03:29:35.336Z,-3.8
2019-01-16T03:32:05.971Z,-3.8
2019-01-16T03:32:55.645Z,-3.8
2019-01-16T03:33:45.340Z,-3.8
2019-01-16T03:35:26.021Z,-3.7
2019-01-16T03:36:15.903Z,-3.7
2019-01-16T03:37:05.855Z,-3.6
2019-01-16T03:37:56.183Z,-3.7
2019-01-16T03:38:46.249Z,-3.7
2019-01-16T03:40:26.346Z,-3.8
2019-01-16T03:41:16.131Z,-3.8
2019-01-16T03:42:06.515Z,-3.8
2019-01-16T03:42:56.232Z,-3.9
2019-01-16T03:43:46.305Z,-3.9
2019-01-16T03:44:36.406Z,-3.9
2019-01-16T03:45:26.677Z,-3.9
2019-01-16T03:46:16.476Z,-3.9
2019-01-16T03:47:06.250Z,-3.9
2019-01-16T03:47:56.599Z,-3.9
2019-01-16T03:48:46.895Z,-3.8
2019-01-16T03:49:36.977Z,-3.8
2019-01-16T03:50:27.030Z,-3.9
2019-01-16T03:51:16.518Z,-3.9
2019-01-16T03:52:07.137Z,-3.9
2019-01-16T03:52:56.953Z,-4
2019-01-16T03:53:46.682Z,-4
2019-01-16T03:54:37.034Z,-4
2019-01-16T03:55:27.088Z,-4
2019-01-16T03:56:17.125Z,-4
2019-01-16T03:57:07.194Z,-4
2019-01-16T03:57:57.547Z,-4.1
2019-01-16T03:58:47.587Z,-4.1
2019-01-16T03:59:37.382Z,-4.1
2019-01-16T04:00:27.684Z,-4.2
2019-01-16T04:01:17.754Z,-4.1
2019-01-16T04:02:07.818Z,-4.2
2019-01-16T04:02:57.879Z,-4.3
2019-01-16T04:03:47.632Z,-4.2
2019-01-16T04:04:37.974Z,-4.2
2019-01-16T04:05:28.029Z,-4.2
2019-01-16T04:06:18.086Z,-4.2
2019-01-16T04:07:07.591Z,-4.3
2019-01-16T04:07:57.631Z,-4.3
2019-01-16T04:08:47.987Z,-4.3
2019-01-16T04:09:38.046Z,-4.3
2019-01-16T04:10:28.061Z,-4.3
2019-01-16T04:11:18.144Z,-4.3
2019-01-16T04:12:08.482Z,-4.3
2019-01-16T04:12:58.260Z,-4.4
2019-01-16T04:13:48.315Z,-4.4
2019-01-16T04:14:38.669Z,-4.4
2019-01-16T04:15:28.698Z,-4.4
2019-01-16T04:16:18.808Z,-4.3
2019-01-16T04:17:08.883Z,-4.3
2019-01-16T04:17:58.868Z,-4.3
2019-01-16T04:18:48.941Z,-4.3
2019-01-16T04:19:38.988Z,-4.2
2019-01-16T04:20:29.039Z,-4.2
2019-01-16T04:21:19.115Z,-4.1
2019-01-16T04:22:09.201Z,-4.1
2019-01-16T04:22:58.933Z,-4.3
2019-01-16T04:23:49.286Z,-4.3
2019-01-16T04:24:39.053Z,-4.5
2019-01-16T04:25:29.136Z,-4.6
2019-01-16T04:26:19.165Z,-4.5
2019-01-16T04:27:09.476Z,-4.4
2019-01-16T04:27:59.545Z,-4.4
2019-01-16T04:28:49.323Z,-4.5
2019-01-16T04:29:39.656Z,-4.5
2019-01-16T04:30:29.429Z,-4.4
2019-01-16T04:31:19.760Z,-4.5
2019-01-16T04:32:09.834Z,-4.5
2019-01-16T04:32:59.922Z,-4.6
2019-01-16T04:33:49.942Z,-4.6
2019-01-16T04:34:39.996Z,-4.6
2019-01-16T04:35:29.768Z,-4.6
2019-01-16T04:36:20.118Z,-4.7
2019-01-16T04:37:10.148Z,-4.8
2019-01-16T04:38:00.017Z,-4.8
2019-01-16T04:38:50.284Z,-4.7
2019-01-16T04:39:40.327Z,-4.7
2019-01-16T04:40:30.404Z,-4.7
2019-01-16T04:41:20.226Z,-4.7
2019-01-16T04:42:10.512Z,-4.8
2019-01-16T04:43:00.330Z,-4.8
2019-01-16T04:43:50.329Z,-4.8
2019-01-16T04:44:40.716Z,-4.7
2019-01-16T04:45:30.459Z,-4.7
2019-01-16T04:46:20.761Z,-4.7
2019-01-16T04:47:10.831Z,-4.7
2019-01-16T04:48:00.891Z,-4.6
2019-01-16T04:48:51.011Z,-4.6
2019-01-16T04:49:40.724Z,-4.6
2019-01-16T04:50:30.771Z,-4.6
2019-01-16T04:51:21.169Z,-4.6
2019-01-16T04:52:10.889Z,-4.6
2019-01-16T04:53:01.202Z,-4.6
2019-01-16T04:53:51.281Z,-4.6
2019-01-16T04:54:41.346Z,-4.6
2019-01-16T04:55:31.378Z,-4.6
2019-01-16T04:56:21.181Z,-4.6
2019-01-16T04:57:11.511Z,-4.6
2019-01-16T04:58:01.548Z,-4.6
2019-01-16T04:58:51.655Z,-4.6
2019-01-16T04:59:41.391Z,-4.5
2019-01-16T05:00:31.539Z,-4.4
2019-01-16T05:01:21.783Z,-4.4
2019-01-16T05:02:11.873Z,-4.4
2019-01-16T05:03:01.906Z,-4.3
2019-01-16T05:03:51.955Z,-4.3
2019-01-16T05:04:42.016Z,-4.3
2019-01-16T05:05:31.780Z,-4.3
2019-01-16T05:06:21.853Z,-4.3
2019-01-16T05:07:11.947Z,-4.3
2019-01-16T05:08:01.683Z,-4.2
2019-01-16T05:08:52.273Z,-4.2
2019-01-16T05:09:42.333Z,-4.3
2019-01-16T05:10:32.129Z,-4.3
2019-01-16T05:11:21.895Z,-4.3
2019-01-16T05:12:12.511Z,-4.3
2019-01-16T05:13:02.560Z,-4.3
2019-01-16T05:13:52.617Z,-4.3
2019-01-16T05:14:42.384Z,-4.4
2019-01-16T05:15:32.455Z,-4.4
2019-01-16T05:16:22.783Z,-4.4
2019-01-16T05:17:12.842Z,-4.4
2019-01-16T05:18:02.902Z,-4.4
2019-01-16T05:18:52.988Z,-4.5
2019-01-16T05:19:43.020Z,-4.5
2019-01-16T05:20:32.801Z,-4.6
2019-01-16T05:21:22.308Z,-4.6
2019-01-16T05:22:12.619Z,-4.6
2019-01-16T05:23:03.233Z,-4.6
2019-01-16T05:23:53.307Z,-4.6
2019-01-16T05:24:43.346Z,-4.6
2019-01-16T05:25:33.119Z,-4.6
2019-01-16T05:26:23.519Z,-4.6
2019-01-16T05:27:13.521Z,-4.7
2019-01-16T05:28:03.576Z,-4.7
2019-01-16T05:28:53.635Z,-4.7
2019-01-16T05:29:43.513Z,-4.7
2019-01-16T05:30:33.727Z,-4.6
2019-01-16T05:31:23.516Z,-4.6
2019-01-16T05:32:13.851Z,-4.6
2019-01-16T05:33:03.899Z,-4.7
2019-01-16T05:33:53.953Z,-4.7
2019-01-16T05:34:44.001Z,-4.7
2019-01-16T05:35:34.074Z,-4.8
2019-01-16T05:36:23.586Z,-4.8
2019-01-16T05:37:13.894Z,-4.8
2019-01-16T05:38:04.273Z,-4.8
2019-01-16T05:38:54.286Z,-4.8
2019-01-16T05:39:44.066Z,-4.8
2019-01-16T05:40:34.436Z,-4.7
2019-01-16T05:41:24.193Z,-4.8
2019-01-16T05:42:14.515Z,-4.8
2019-01-16T05:43:04.307Z,-4.8
2019-01-16T05:43:54.635Z,-4.8
2019-01-16T05:44:44.680Z,-4.8
2019-01-16T05:45:34.463Z,-4.8
2019-01-16T05:46:24.780Z,-4.8
2019-01-16T05:47:14.840Z,-4.8
2019-01-16T05:48:04.893Z,-4.8
2019-01-16T05:48:54.660Z,-4.8
2019-01-16T05:49:49.815Z,-4.8
2019-01-16T05:50:34.520Z,-4.9
2019-01-16T05:51:25.118Z,-4.8
2019-01-16T05:52:15.162Z,-4.8
2019-01-16T05:53:04.970Z,-4.8
2019-01-16T05:53:55.287Z,-4.8
2019-01-16T05:54:45.052Z,-4.8
2019-01-16T05:55:35.140Z,-4.6
2019-01-16T05:56:25.179Z,-4.6
2019-01-16T05:57:15.499Z,-4.6
2019-01-16T05:58:05.624Z,-4.6
2019-01-16T05:58:55.344Z,-4.6
2019-01-16T05:59:45.407Z,-4.6
2019-01-16T06:00:35.747Z,-4.6
2019-01-16T06:01:25.809Z,-4.6
2019-01-16T06:02:15.848Z,-4.6
2019-01-16T06:03:05.952Z,-4.6
2019-01-16T06:03:55.968Z,-4.6
2019-01-16T06:04:45.451Z,-4.6
2019-01-16T06:06:43.804Z,-4.6
2019-01-16T06:07:34.138Z,-4.6
2019-01-16T06:08:24.194Z,-4.6
2019-01-16T06:09:13.981Z,-4.6
2019-01-16T06:10:04.339Z,-4.7
2019-01-16T06:10:54.383Z,-4.6
2019-01-16T06:11:44.399Z,-4.6
2019-01-16T06:12:34.475Z,-4.7
2019-01-16T06:13:24.569Z,-4.7
2019-01-16T06:14:14.627Z,-4.8
2019-01-16T06:15:04.640Z,-4.8
2019-01-16T06:15:54.732Z,-4.7
2019-01-16T06:16:44.455Z,-4.7
2019-01-16T06:17:34.785Z,-4.7
2019-01-16T06:18:24.837Z,-4.6
2019-01-16T06:19:14.627Z,-4.6
2019-01-16T06:20:04.973Z,-4.6
2019-01-16T06:20:54.744Z,-4.6
2019-01-16T06:21:45.062Z,-4.6
2019-01-16T06:22:35.122Z,-4.6
2019-01-16T06:23:25.264Z,-4.6
2019-01-16T06:24:15.229Z,-4.6
2019-01-16T06:25:05.339Z,-4.6
2019-01-16T06:25:55.351Z,-4.6
2019-01-16T06:26:45.127Z,-4.6
2019-01-16T06:27:35.534Z,-4.6
2019-01-16T06:28:25.577Z,-4.5
2019-01-16T06:29:15.298Z,-4.6
2019-01-16T06:30:05.638Z,-4.5
2019-01-16T06:30:55.391Z,-4.5
2019-01-16T06:31:45.743Z,-4.4
2019-01-16T06:32:35.796Z,-4.4
2019-01-16T06:33:25.888Z,-4.4
2019-01-16T06:34:15.924Z,-4.3
2019-01-16T06:35:05.986Z,-4.3
2019-01-16T06:35:55.761Z,-4.3
2019-01-16T06:36:45.353Z,-4.2
2019-01-16T06:37:36.130Z,-4.1
2019-01-16T06:38:26.178Z,-4
2019-01-16T06:39:16.233Z,-3.9
2019-01-16T06:40:06.021Z,-3.8
2019-01-16T06:40:56.063Z,-3.6
2019-01-16T06:41:45.858Z,-3.6
2019-01-16T06:42:36.456Z,-3.4
2019-01-16T06:43:26.235Z,-3.4
2019-01-16T06:44:16.320Z,-3.3
2019-01-16T06:45:05.800Z,-3.2
2019-01-16T06:45:56.405Z,-3.1
2019-01-16T06:46:46.731Z,-2.9
2019-01-16T06:47:36.510Z,-2.9
2019-01-16T06:48:26.288Z,-2.8
2019-01-16T06:49:16.355Z,-2.8
2019-01-16T06:50:06.958Z,-2.7
2019-01-16T06:50:56.733Z,-2.7
2019-01-16T06:51:47.065Z,-2.6
2019-01-16T06:52:37.130Z,-2.6
2019-01-16T06:53:26.920Z,-2.6
2019-01-16T06:54:17.230Z,-2.6
2019-01-16T06:55:07.096Z,-2.6
2019-01-16T06:55:57.084Z,-2.7
2019-01-16T06:56:47.397Z,-2.7
2019-01-16T06:57:37.262Z,-2.7
2019-01-16T06:58:27.242Z,-2.6
2019-01-16T06:59:16.832Z,-2.6
2019-01-16T07:00:07.622Z,-2.6
2019-01-16T07:00:57.199Z,-2.7
2019-01-16T07:01:47.465Z,-2.6
2019-01-16T07:02:37.792Z,-2.6
2019-01-16T07:03:27.584Z,-2.6
2019-01-16T07:04:17.631Z,-2.7
2019-01-16T07:06:43.721Z,-2.6
2019-01-16T07:07:34.062Z,-2.6
2019-01-16T07:08:23.639Z,-2.6
2019-01-16T07:09:14.174Z,-2.6
2019-01-16T07:10:04.240Z,-2.6
2019-01-16T07:10:54.356Z,-2.6
2019-01-16T07:11:44.121Z,-2.7
2019-01-16T07:12:33.856Z,-2.7
2019-01-16T07:13:24.446Z,-2.7
2019-01-16T07:14:14.506Z,-2.8
2019-01-16T07:15:04.549Z,-2.7
2019-01-16T07:15:54.611Z,-2.7
2019-01-16T07:16:44.398Z,-2.6
2019-01-16T07:17:34.733Z,-2.6
2019-01-16T07:18:24.781Z,-2.4
2019-01-16T07:19:14.854Z,-2.3
2019-01-16T07:20:12.606Z,-2.3
2019-01-16T07:20:54.676Z,-2.1
2019-01-16T07:21:45.000Z,-2.1
2019-01-16T07:22:35.063Z,-1.9
2019-01-16T07:23:25.126Z,-1.8
2019-01-16T07:24:15.178Z,-1.8
2019-01-16T07:25:05.231Z,-1.8
2019-01-16T07:25:55.303Z,-1.6
2019-01-16T07:26:45.078Z,-1.6
2019-01-16T07:27:35.401Z,-1.5
2019-01-16T07:28:25.458Z,-1.5
2019-01-16T07:29:15.238Z,-1.4
2019-01-16T07:30:05.581Z,-1.3
2019-01-16T07:30:55.625Z,-1.2
2019-01-16T07:31:45.728Z,-1
2019-01-16T07:33:25.803Z,-1
2019-01-16T07:34:15.845Z,-0.9
2019-01-16T07:35:05.900Z,-0.9
2019-01-16T07:35:55.705Z,-0.8
2019-01-16T07:36:45.459Z,-0.8
2019-01-16T07:37:35.587Z,-0.8
2019-01-16T07:38:26.130Z,-0.8
2019-01-16T07:39:16.200Z,-0.8
2019-01-16T07:40:05.972Z,-0.7
2019-01-16T07:40:56.022Z,-0.5
2019-01-16T07:41:46.095Z,-0.4
2019-01-16T07:42:36.021Z,-0.4
2019-01-16T07:43:26.490Z,-0.3
2019-01-16T07:44:16.271Z,-0.3
2019-01-16T07:45:06.312Z,-0.3
2019-01-16T07:45:56.636Z,-0.3
2019-01-16T07:46:46.759Z,-0.1
2019-01-16T07:47:36.752Z,-0.1
2019-01-16T07:48:26.947Z,-0.1
2019-01-16T07:49:16.859Z,0
2019-01-16T07:50:06.919Z,0.1
2019-01-16T07:50:56.981Z,0.1
2019-01-16T07:51:47.061Z,0.3
2019-01-16T07:52:36.605Z,0.3
2019-01-16T07:53:27.156Z,0.3
2019-01-16T07:54:16.925Z,0.2
2019-01-16T07:55:07.261Z,0.3
2019-01-16T07:55:57.045Z,0.3
2019-01-16T07:56:47.111Z,0.4
2019-01-16T07:57:37.158Z,0.5
2019-01-16T07:58:27.498Z,0.6
2019-01-16T07:59:24.638Z,0.6
2019-01-16T08:00:07.605Z,0.6
2019-01-16T08:00:57.666Z,0.6
2019-01-16T08:01:47.711Z,0.5
2019-01-16T08:02:37.784Z,0.7
2019-01-16T08:03:27.818Z,0.8
2019-01-16T08:04:17.338Z,0.8
2019-01-16T08:05:07.935Z,0.7
2019-01-16T08:05:57.993Z,0.8
2019-01-16T08:06:47.788Z,0.8
2019-01-16T08:07:38.115Z,0.9
2019-01-16T08:08:27.883Z,0.9
2019-01-16T08:09:17.959Z,1
2019-01-16T08:10:07.997Z,1.1
2019-01-16T08:10:58.062Z,1.2
2019-01-16T08:11:47.845Z,1.1
2019-01-16T08:12:38.447Z,1.1
2019-01-16T08:13:28.517Z,1.2
2019-01-16T08:14:18.558Z,1.2
2019-01-16T08:15:08.612Z,1.1
2019-01-16T08:15:58.662Z,1.2
2019-01-16T08:16:48.193Z,1.2
2019-01-16T08:17:38.845Z,1.2
2019-01-16T08:18:28.844Z,1.3
2019-01-16T08:19:18.919Z,1.3
2019-01-16T08:20:08.718Z,1.4
2019-01-16T08:20:59.019Z,1.4
2019-01-16T08:21:49.067Z,1.4
2019-01-16T08:22:39.144Z,1.4
2019-01-16T08:23:29.185Z,1.4
2019-01-16T08:24:19.241Z,1.4
2019-01-16T08:25:09.347Z,1.7
2019-01-16T08:25:59.355Z,1.8
2019-01-16T08:26:48.919Z,1.9
2019-01-16T08:27:39.192Z,2.1
2019-01-16T08:28:29.269Z,1.9
2019-01-16T08:29:19.302Z,1.9
2019-01-16T08:30:09.362Z,1.8
2019-01-16T08:30:59.414Z,1.8
2019-01-16T08:31:49.758Z,1.9
2019-01-16T08:32:39.254Z,1.8
2019-01-16T08:33:29.579Z,1.9
2019-01-16T08:34:19.913Z,1.9
2019-01-16T08:35:09.975Z,2
2019-01-16T08:35:59.758Z,2.2
2019-01-16T08:36:50.123Z,2.1
2019-01-16T08:37:39.861Z,2.1
2019-01-16T08:38:30.006Z,2.2
2019-01-16T08:39:20.246Z,2.3
2019-01-16T08:40:10.364Z,2.3
2019-01-16T08:41:00.363Z,2.4
2019-01-16T08:41:50.159Z,2.7
2019-01-16T08:42:40.469Z,2.8
2019-01-16T08:43:30.537Z,2.5
2019-01-16T08:44:20.592Z,2.4
2019-01-16T08:45:10.395Z,2.6
2019-01-16T08:46:00.428Z,2.6
2019-01-16T08:46:50.755Z,2.8
2019-01-16T08:47:40.846Z,3
2019-01-16T08:48:30.608Z,3.1
2019-01-16T08:49:20.710Z,3.3
2019-01-16T08:50:10.733Z,3
2019-01-16T08:51:01.046Z,3.2
2019-01-16T08:51:50.878Z,3.2
2019-01-16T08:52:41.146Z,3.3
2019-01-16T08:53:31.200Z,3.3
2019-01-16T08:54:21.005Z,3.4
2019-01-16T08:55:11.334Z,3.6
2019-01-16T08:56:01.375Z,3.9
2019-01-16T08:56:51.444Z,3.9
2019-01-16T08:57:41.500Z,3.9
2019-01-16T08:58:31.565Z,3.8
2019-01-16T08:59:21.331Z,3.8
2019-01-16T09:00:11.672Z,3.8
2019-01-16T09:01:01.160Z,3.9
2019-01-16T09:01:51.780Z,4
2019-01-16T09:02:41.844Z,3.9
2019-01-16T09:03:31.890Z,3.8
2019-01-16T09:04:21.942Z,3.8
2019-01-16T09:05:11.744Z,3.8
2019-01-16T09:06:01.291Z,3.8
2019-01-16T09:06:52.177Z,3.9
2019-01-16T09:07:42.164Z,3.6
2019-01-16T09:08:31.946Z,3.6
2019-01-16T09:09:22.014Z,3.5
2019-01-16T09:10:11.852Z,3.6
2019-01-16T09:11:02.399Z,3.4
2019-01-16T09:11:52.191Z,3.4
2019-01-16T09:12:41.751Z,3.3
2019-01-16T09:13:32.564Z,3.3
2019-01-16T09:14:22.402Z,3.2
2019-01-16T09:15:12.680Z,3.2
2019-01-16T09:16:02.465Z,2.9
2019-01-16T09:16:52.559Z,2.6
2019-01-16T09:17:44.372Z,2.4
2019-01-16T09:18:32.661Z,2.4
2019-01-16T09:19:23.014Z,2.5
2019-01-16T09:20:13.017Z,2.3
2019-01-16T09:21:03.069Z,2.3
2019-01-16T09:21:53.118Z,2.2
2019-01-16T09:22:44.934Z,2.1
2019-01-16T09:23:33.241Z,2.2
2019-01-16T09:24:22.743Z,1.9
2019-01-16T09:25:13.358Z,1.9
2019-01-16T09:26:03.408Z,2.1
2019-01-16T09:26:53.176Z,2.1
2019-01-16T09:27:43.233Z,2.1
2019-01-16T09:28:33.568Z,2.1
2019-01-16T09:29:23.630Z,2.1
2019-01-16T09:30:13.690Z,2.4
2019-01-16T09:31:03.463Z,2.7
2019-01-16T09:31:53.795Z,2.8
2019-01-16T09:32:43.881Z,3.1
2019-01-16T09:33:33.412Z,3.3
2019-01-16T09:34:24.012Z,3.6
2019-01-16T09:35:13.540Z,3.6
2019-01-16T09:36:04.079Z,3.7
2019-01-16T09:36:54.213Z,3.8
2019-01-16T09:37:44.203Z,3.9
2019-01-16T09:38:34.246Z,4.1
2019-01-16T09:39:24.022Z,4.2
2019-01-16T09:40:14.362Z,4.4
2019-01-16T09:41:03.662Z,4.7
2019-01-16T09:41:54.468Z,4.8
2019-01-16T09:42:44.332Z,4.8
2019-01-16T09:43:34.608Z,4.6
2019-01-16T09:44:24.150Z,4.6
2019-01-16T09:45:14.707Z,4.6
2019-01-16T09:46:04.479Z,4.6
2019-01-16T09:46:54.809Z,4.7
2019-01-16T09:47:44.902Z,4.8
2019-01-16T09:48:34.369Z,5
2019-01-16T09:49:24.429Z,4.8
2019-01-16T09:50:14.754Z,4.8
2019-01-16T09:51:05.097Z,4.6
2019-01-16T09:51:55.226Z,4.6
2019-01-16T09:52:44.936Z,4.8
2019-01-16T09:53:35.266Z,4.8
2019-01-16T09:54:25.317Z,5
2019-01-16T09:55:15.381Z,4.9
2019-01-16T09:56:05.445Z,4.9
2019-01-16T09:56:55.211Z,4.6
2019-01-16T09:57:45.595Z,4.5
2019-01-16T09:58:35.329Z,4.8
2019-01-16T09:59:25.388Z,4.8
2019-01-16T10:00:15.222Z,4.7
2019-01-16T10:01:05.756Z,4.8
2019-01-16T10:01:55.276Z,4.8
2019-01-16T10:02:45.888Z,4.8
2019-01-16T10:03:35.678Z,4.6
2019-01-16T10:04:25.784Z,4.7
2019-01-16T10:05:16.046Z,4.7
2019-01-16T10:07:43.290Z,4.7
2019-01-16T10:08:33.663Z,4.9
2019-01-16T10:09:23.671Z,4.9
2019-01-16T10:10:14.008Z,5.1
2019-01-16T10:11:04.064Z,5
2019-01-16T10:11:54.110Z,4.9
2019-01-16T10:12:44.173Z,4.9
2019-01-16T10:13:33.950Z,4.9
2019-01-16T10:14:24.293Z,4.8
2019-01-16T10:15:14.127Z,5.1
2019-01-16T10:16:04.396Z,5.2
2019-01-16T10:16:54.453Z,5.1
2019-01-16T10:17:44.242Z,4.9
2019-01-16T10:18:34.285Z,4.9
2019-01-16T10:19:24.339Z,4.9
2019-01-16T10:20:14.675Z,5
2019-01-16T10:21:04.734Z,5.3
2019-01-16T10:21:54.511Z,5.3
2019-01-16T10:22:44.840Z,5.2
2019-01-16T10:23:34.619Z,5.3
2019-01-16T10:24:24.692Z,5.1
2019-01-16T10:25:15.025Z,5.1
2019-01-16T10:26:05.082Z,5.3
2019-01-16T10:26:55.134Z,5.3
2019-01-16T10:27:44.419Z,5.4
2019-01-16T10:28:34.960Z,5.6
2019-01-16T10:29:25.293Z,5.5
2019-01-16T10:30:14.527Z,5.7
2019-01-16T10:31:05.124Z,5.6
2019-01-16T10:31:55.280Z,5.5
2019-01-16T10:32:45.521Z,5.4
2019-01-16T10:33:35.309Z,5.2
2019-01-16T10:34:25.356Z,5.3
2019-01-16T10:35:15.691Z,5.5
2019-01-16T10:36:04.992Z,5.3
2019-01-16T10:36:55.809Z,5.6
2019-01-16T10:37:45.871Z,5.5
2019-01-16T10:38:35.366Z,5.3
2019-01-16T10:39:25.709Z,5.4
2019-01-16T10:40:16.034Z,5.3
2019-01-16T10:41:06.098Z,5.3
2019-01-16T10:41:55.861Z,5.3
2019-01-16T10:42:45.925Z,5.3
2019-01-16T10:43:36.036Z,5.3
2019-01-16T10:44:26.082Z,5.3
2019-01-16T10:45:16.110Z,5.4
2019-01-16T10:46:06.446Z,5.4
2019-01-16T10:46:56.481Z,5.4
2019-01-16T10:47:46.570Z,5.4
2019-01-16T10:48:35.777Z,5.3
2019-01-16T10:49:26.653Z,5.4
2019-01-16T10:50:16.166Z,5.6
2019-01-16T10:51:06.493Z,5.5
2019-01-16T10:51:56.880Z,5.3
2019-01-16T10:52:46.605Z,5.4
2019-01-16T10:53:36.671Z,5.6
2019-01-16T10:54:26.786Z,5.6
2019-01-16T10:55:16.786Z,5.6
2019-01-16T10:56:06.828Z,5.6
2019-01-16T10:56:57.212Z,5.5
2019-01-16T10:57:47.221Z,5.6
2019-01-16T10:58:37.008Z,5.8
2019-01-16T10:59:26.787Z,5.8
2019-01-16T11:00:17.385Z,5.6
2019-01-16T11:01:07.179Z,5.6
2019-01-16T11:01:57.503Z,5.5
2019-01-16T11:02:47.282Z,5.4
2019-01-16T11:03:37.612Z,5.4
2019-01-16T11:04:27.119Z,5.4
2019-01-16T11:05:17.184Z,5.4
2019-01-16T11:06:07.232Z,5.6
2019-01-16T11:06:57.567Z,5.8
2019-01-16T11:07:47.899Z,5.7
2019-01-16T11:08:37.969Z,5.8
2019-01-16T11:09:28.034Z,5.6
2019-01-16T11:10:17.799Z,5.5
2019-01-16T11:11:16.990Z,5.5
2019-01-16T11:11:57.625Z,5.6
2019-01-16T11:12:48.234Z,5.6
2019-01-16T11:13:38.120Z,5.4
2019-01-16T11:14:28.080Z,5.4
2019-01-16T11:15:18.139Z,5.4
2019-01-16T11:16:08.466Z,5.3
2019-01-16T11:16:59.471Z,5.3
2019-01-16T11:17:48.299Z,5.4
2019-01-16T11:18:38.634Z,5.6
2019-01-16T11:19:28.426Z,5.6
2019-01-16T11:20:18.202Z,5.6
2019-01-16T11:21:13.966Z,5.7
2019-01-16T11:21:58.301Z,5.8
2019-01-16T11:22:48.646Z,5.8
2019-01-16T11:23:38.699Z,5.7
2019-01-16T11:24:28.761Z,5.6
2019-01-16T11:25:19.138Z,5.8
2019-01-16T11:26:08.598Z,5.8
2019-01-16T11:26:58.926Z,5.9